sensor_id;sensor_type;location;lat;lon;timestamp;P1;durP1;ratioP1;P2;durP2;ratioP2
76292;SDS011;67256;51.154;4.164;2023-02-28T00:01:24;10.05;;;4.88;;
76292;SDS011;67256;51.154;4.164;2023-02-28T00:03:50;10.60;;;4.65;;
76292;SDS011;67256;51.154;4.164;2023-02-28T00:06:16;10.25;;;4.88;;
76292;SDS011;67256;51.154;4.164;2023-02-28T00:08:42;9.77;;;4.38;;
76292;SDS011;67256;51.154;4.164;2023-02-28T00:11:09;9.73;;;4.45;;
76292;SDS011;67256;51.154;4.164;2023-02-28T00:13:42;8.60;;;3.78;;
76292;SDS011;67256;51.154;4.164;2023-02-28T00:16:15;8.35;;;4.35;;
76292;SDS011;67256;51.154;4.164;2023-02-28T00:18:43;8.88;;;3.60;;
76292;SDS011;67256;51.154;4.164;2023-02-28T00:21:09;9.27;;;5.07;;
76292;SDS011;67256;51.154;4.164;2023-02-28T00:23:35;7.70;;;4.43;;
76292;SDS011;67256;51.154;4.164;2023-02-28T00:26:01;8.50;;;4.32;;
76292;SDS011;67256;51.154;4.164;2023-02-28T00:28:27;11.02;;;4.68;;
76292;SDS011;67256;51.154;4.164;2023-02-28T00:30:52;7.25;;;5.18;;
76292;SDS011;67256;51.154;4.164;2023-02-28T00:33:19;8.27;;;4.60;;
76292;SDS011;67256;51.154;4.164;2023-02-28T00:35:45;10.15;;;4.60;;
76292;SDS011;67256;51.154;4.164;2023-02-28T00:38:11;8.93;;;5.72;;
76292;SDS011;67256;51.154;4.164;2023-02-28T00:40:38;8.32;;;4.85;;
76292;SDS011;67256;51.154;4.164;2023-02-28T00:43:04;9.02;;;5.05;;
76292;SDS011;67256;51.154;4.164;2023-02-28T00:45:30;8.80;;;4.88;;
76292;SDS011;67256;51.154;4.164;2023-02-28T00:47:55;21.48;;;6.55;;
76292;SDS011;67256;51.154;4.164;2023-02-28T00:50:21;7.28;;;5.03;;
76292;SDS011;67256;51.154;4.164;2023-02-28T00:52:47;9.02;;;5.40;;
76292;SDS011;67256;51.154;4.164;2023-02-28T00:55:13;10.38;;;4.68;;
76292;SDS011;67256;51.154;4.164;2023-02-28T00:57:39;13.95;;;5.55;;
76292;SDS011;67256;51.154;4.164;2023-02-28T01:00:05;8.73;;;5.38;;
76292;SDS011;67256;51.154;4.164;2023-02-28T01:02:32;7.05;;;4.75;;
76292;SDS011;67256;51.154;4.164;2023-02-28T01:04:58;15.77;;;5.70;;
76292;SDS011;67256;51.154;4.164;2023-02-28T01:07:23;9.20;;;5.05;;
76292;SDS011;67256;51.154;4.164;2023-02-28T01:09:49;6.47;;;4.28;;
76292;SDS011;67256;51.154;4.164;2023-02-28T01:12:16;8.82;;;5.53;;
76292;SDS011;67256;51.154;4.164;2023-02-28T01:14:42;9.70;;;5.47;;
76292;SDS011;67256;51.154;4.164;2023-02-28T01:17:08;10.50;;;5.85;;
76292;SDS011;67256;51.154;4.164;2023-02-28T01:19:34;10.05;;;4.95;;
76292;SDS011;67256;51.154;4.164;2023-02-28T01:22:03;10.52;;;5.18;;
76292;SDS011;67256;51.154;4.164;2023-02-28T01:24:30;13.85;;;6.03;;
76292;SDS011;67256;51.154;4.164;2023-02-28T01:26:56;9.23;;;5.63;;
76292;SDS011;67256;51.154;4.164;2023-02-28T01:29:22;10.20;;;5.47;;
76292;SDS011;67256;51.154;4.164;2023-02-28T01:31:48;8.25;;;5.85;;
76292;SDS011;67256;51.154;4.164;2023-02-28T01:34:13;12.63;;;5.65;;
76292;SDS011;67256;51.154;4.164;2023-02-28T01:36:39;10.40;;;5.22;;
76292;SDS011;67256;51.154;4.164;2023-02-28T01:39:05;8.52;;;5.00;;
76292;SDS011;67256;51.154;4.164;2023-02-28T01:41:33;6.50;;;5.25;;
76292;SDS011;67256;51.154;4.164;2023-02-28T01:44:07;7.85;;;5.20;;
76292;SDS011;67256;51.154;4.164;2023-02-28T01:47:10;7.68;;;4.93;;
76292;SDS011;67256;51.154;4.164;2023-02-28T01:49:35;8.98;;;5.45;;
76292;SDS011;67256;51.154;4.164;2023-02-28T01:52:02;12.55;;;5.28;;
76292;SDS011;67256;51.154;4.164;2023-02-28T01:54:29;9.30;;;5.57;;
76292;SDS011;67256;51.154;4.164;2023-02-28T01:59:29;10.50;;;5.63;;
76292;SDS011;67256;51.154;4.164;2023-02-28T02:02:00;8.43;;;4.60;;
76292;SDS011;67256;51.154;4.164;2023-02-28T02:04:27;7.85;;;4.95;;
76292;SDS011;67256;51.154;4.164;2023-02-28T02:07:04;11.75;;;4.95;;
76292;SDS011;67256;51.154;4.164;2023-02-28T02:09:30;10.23;;;5.13;;
76292;SDS011;67256;51.154;4.164;2023-02-28T02:11:55;8.90;;;5.03;;
76292;SDS011;67256;51.154;4.164;2023-02-28T02:14:29;13.00;;;5.13;;
76292;SDS011;67256;51.154;4.164;2023-02-28T02:17:01;9.90;;;5.43;;
76292;SDS011;67256;51.154;4.164;2023-02-28T02:25:28;8.77;;;4.75;;
76292;SDS011;67256;51.154;4.164;2023-02-28T02:34:05;10.13;;;5.85;;
76292;SDS011;67256;51.154;4.164;2023-02-28T02:36:40;8.55;;;5.15;;
76292;SDS011;67256;51.154;4.164;2023-02-28T02:42:31;11.00;;;5.85;;
76292;SDS011;67256;51.154;4.164;2023-02-28T02:45:14;7.30;;;4.95;;
76292;SDS011;67256;51.154;4.164;2023-02-28T02:47:54;9.25;;;6.32;;
76292;SDS011;67256;51.154;4.164;2023-02-28T02:50:26;10.40;;;5.40;;
76292;SDS011;67256;51.154;4.164;2023-02-28T02:53:00;9.15;;;4.95;;
76292;SDS011;67256;51.154;4.164;2023-02-28T02:55:28;7.57;;;4.82;;
76292;SDS011;67256;51.154;4.164;2023-02-28T02:57:59;12.50;;;5.40;;
76292;SDS011;67256;51.154;4.164;2023-02-28T03:00:32;9.85;;;6.93;;
76292;SDS011;67256;51.154;4.164;2023-02-28T03:03:02;12.02;;;5.53;;
76292;SDS011;67256;51.154;4.164;2023-02-28T03:05:34;10.05;;;5.50;;
76292;SDS011;67256;51.154;4.164;2023-02-28T03:08:06;10.55;;;4.78;;
76292;SDS011;67256;51.154;4.164;2023-02-28T03:10:35;10.30;;;6.18;;
76292;SDS011;67256;51.154;4.164;2023-02-28T03:13:26;8.85;;;5.30;;
76292;SDS011;67256;51.154;4.164;2023-02-28T03:16:38;8.55;;;5.80;;
76292;SDS011;67256;51.154;4.164;2023-02-28T03:28:45;12.05;;;5.45;;
76292;SDS011;67256;51.154;4.164;2023-02-28T03:31:07;11.40;;;5.03;;
76292;SDS011;67256;51.154;4.164;2023-02-28T03:34:04;10.73;;;6.15;;
76292;SDS011;67256;51.154;4.164;2023-02-28T03:36:37;8.65;;;5.53;;
76292;SDS011;67256;51.154;4.164;2023-02-28T03:39:09;9.20;;;5.35;;
76292;SDS011;67256;51.154;4.164;2023-02-28T03:41:52;8.57;;;6.20;;
76292;SDS011;67256;51.154;4.164;2023-02-28T03:44:33;14.43;;;5.88;;
76292;SDS011;67256;51.154;4.164;2023-02-28T03:47:12;9.68;;;5.68;;
76292;SDS011;67256;51.154;4.164;2023-02-28T03:49:48;11.07;;;5.13;;
76292;SDS011;67256;51.154;4.164;2023-02-28T03:52:17;14.20;;;6.03;;
76292;SDS011;67256;51.154;4.164;2023-02-28T03:54:50;9.90;;;5.65;;
76292;SDS011;67256;51.154;4.164;2023-02-28T03:57:22;12.35;;;5.78;;
76292;SDS011;67256;51.154;4.164;2023-02-28T04:00:07;13.65;;;6.20;;
76292;SDS011;67256;51.154;4.164;2023-02-28T04:02:46;13.38;;;5.97;;
76292;SDS011;67256;51.154;4.164;2023-02-28T04:05:18;12.05;;;5.65;;
76292;SDS011;67256;51.154;4.164;2023-02-28T04:07:44;8.60;;;5.82;;
76292;SDS011;67256;51.154;4.164;2023-02-28T04:10:11;10.43;;;5.38;;
76292;SDS011;67256;51.154;4.164;2023-02-28T04:12:37;10.48;;;6.55;;
76292;SDS011;67256;51.154;4.164;2023-02-28T04:15:03;8.80;;;5.80;;
76292;SDS011;67256;51.154;4.164;2023-02-28T04:17:30;9.65;;;5.75;;
76292;SDS011;67256;51.154;4.164;2023-02-28T04:19:56;11.40;;;5.72;;
76292;SDS011;67256;51.154;4.164;2023-02-28T04:22:22;10.93;;;5.53;;
76292;SDS011;67256;51.154;4.164;2023-02-28T04:24:51;12.13;;;5.73;;
76292;SDS011;67256;51.154;4.164;2023-02-28T04:27:18;13.50;;;5.85;;
76292;SDS011;67256;51.154;4.164;2023-02-28T04:29:44;11.32;;;6.07;;
76292;SDS011;67256;51.154;4.164;2023-02-28T04:32:10;10.77;;;5.38;;
76292;SDS011;67256;51.154;4.164;2023-02-28T04:34:37;10.77;;;5.13;;
76292;SDS011;67256;51.154;4.164;2023-02-28T04:37:03;9.52;;;5.07;;
76292;SDS011;67256;51.154;4.164;2023-02-28T04:39:29;11.00;;;5.32;;
76292;SDS011;67256;51.154;4.164;2023-02-28T04:41:55;10.70;;;5.72;;
76292;SDS011;67256;51.154;4.164;2023-02-28T04:44:21;12.50;;;5.40;;
76292;SDS011;67256;51.154;4.164;2023-02-28T04:46:48;8.40;;;5.40;;
76292;SDS011;67256;51.154;4.164;2023-02-28T04:49:15;9.10;;;5.60;;
76292;SDS011;67256;51.154;4.164;2023-02-28T04:51:41;8.10;;;5.15;;
76292;SDS011;67256;51.154;4.164;2023-02-28T04:54:07;12.82;;;6.00;;
76292;SDS011;67256;51.154;4.164;2023-02-28T04:56:33;16.30;;;6.30;;
76292;SDS011;67256;51.154;4.164;2023-02-28T04:58:59;15.68;;;6.43;;
76292;SDS011;67256;51.154;4.164;2023-02-28T05:01:26;10.82;;;6.18;;
76292;SDS011;67256;51.154;4.164;2023-02-28T05:03:54;12.10;;;6.40;;
76292;SDS011;67256;51.154;4.164;2023-02-28T05:06:21;12.52;;;5.63;;
76292;SDS011;67256;51.154;4.164;2023-02-28T05:08:48;10.73;;;5.90;;
76292;SDS011;67256;51.154;4.164;2023-02-28T05:11:22;16.25;;;6.63;;
76292;SDS011;67256;51.154;4.164;2023-02-28T05:13:50;13.75;;;6.63;;
76292;SDS011;67256;51.154;4.164;2023-02-28T05:16:18;11.35;;;5.97;;
76292;SDS011;67256;51.154;4.164;2023-02-28T05:18:45;16.58;;;6.07;;
76292;SDS011;67256;51.154;4.164;2023-02-28T05:21:21;11.32;;;6.00;;
76292;SDS011;67256;51.154;4.164;2023-02-28T05:23:53;10.95;;;5.18;;
76292;SDS011;67256;51.154;4.164;2023-02-28T05:26:20;11.73;;;5.65;;
76292;SDS011;67256;51.154;4.164;2023-02-28T05:28:46;6.90;;;5.63;;
76292;SDS011;67256;51.154;4.164;2023-02-28T05:31:12;9.45;;;4.90;;
76292;SDS011;67256;51.154;4.164;2023-02-28T05:33:38;13.90;;;6.13;;
76292;SDS011;67256;51.154;4.164;2023-02-28T05:36:04;8.40;;;5.60;;
76292;SDS011;67256;51.154;4.164;2023-02-28T05:38:31;9.23;;;6.32;;
76292;SDS011;67256;51.154;4.164;2023-02-28T05:40:57;14.68;;;5.38;;
76292;SDS011;67256;51.154;4.164;2023-02-28T05:43:23;8.73;;;5.38;;
76292;SDS011;67256;51.154;4.164;2023-02-28T05:45:49;11.85;;;5.60;;
76292;SDS011;67256;51.154;4.164;2023-02-28T05:48:15;10.20;;;5.50;;
76292;SDS011;67256;51.154;4.164;2023-02-28T05:50:41;9.23;;;5.72;;
76292;SDS011;67256;51.154;4.164;2023-02-28T05:53:09;7.30;;;5.00;;
76292;SDS011;67256;51.154;4.164;2023-02-28T05:55:36;9.98;;;5.07;;
76292;SDS011;67256;51.154;4.164;2023-02-28T05:58:02;6.95;;;4.85;;
76292;SDS011;67256;51.154;4.164;2023-02-28T06:00:28;8.93;;;5.13;;
76292;SDS011;67256;51.154;4.164;2023-02-28T06:02:54;10.40;;;4.78;;
76292;SDS011;67256;51.154;4.164;2023-02-28T06:05:23;6.63;;;4.60;;
76292;SDS011;67256;51.154;4.164;2023-02-28T06:07:49;15.68;;;5.57;;
76292;SDS011;67256;51.154;4.164;2023-02-28T06:10:15;10.48;;;4.97;;
76292;SDS011;67256;51.154;4.164;2023-02-28T06:12:41;9.93;;;5.63;;
76292;SDS011;67256;51.154;4.164;2023-02-28T06:15:09;10.27;;;5.38;;
76292;SDS011;67256;51.154;4.164;2023-02-28T06:17:38;11.02;;;5.38;;
76292;SDS011;67256;51.154;4.164;2023-02-28T06:20:04;12.00;;;5.25;;
76292;SDS011;67256;51.154;4.164;2023-02-28T06:22:30;8.85;;;5.00;;
76292;SDS011;67256;51.154;4.164;2023-02-28T06:24:56;10.07;;;4.63;;
76292;SDS011;67256;51.154;4.164;2023-02-28T06:27:22;10.02;;;4.97;;
76292;SDS011;67256;51.154;4.164;2023-02-28T06:29:48;10.63;;;5.43;;
76292;SDS011;67256;51.154;4.164;2023-02-28T06:34:44;14.02;;;5.57;;
76292;SDS011;67256;51.154;4.164;2023-02-28T06:37:10;8.50;;;5.50;;
76292;SDS011;67256;51.154;4.164;2023-02-28T06:39:36;11.48;;;5.07;;
76292;SDS011;67256;51.154;4.164;2023-02-28T06:42:03;10.52;;;5.40;;
76292;SDS011;67256;51.154;4.164;2023-02-28T06:44:29;12.70;;;6.22;;
76292;SDS011;67256;51.154;4.164;2023-02-28T06:47:00;13.80;;;5.68;;
76292;SDS011;67256;51.154;4.164;2023-02-28T06:49:28;16.75;;;6.00;;
76292;SDS011;67256;51.154;4.164;2023-02-28T06:51:55;8.50;;;5.32;;
76292;SDS011;67256;51.154;4.164;2023-02-28T06:54:21;11.50;;;5.47;;
76292;SDS011;67256;51.154;4.164;2023-02-28T06:56:47;9.70;;;5.40;;
76292;SDS011;67256;51.154;4.164;2023-02-28T06:59:13;10.75;;;5.97;;
76292;SDS011;67256;51.154;4.164;2023-02-28T07:01:39;14.77;;;5.72;;
76292;SDS011;67256;51.154;4.164;2023-02-28T07:04:05;14.82;;;6.55;;
76292;SDS011;67256;51.154;4.164;2023-02-28T07:06:31;9.68;;;5.85;;
76292;SDS011;67256;51.154;4.164;2023-02-28T07:08:58;12.85;;;6.57;;
76292;SDS011;67256;51.154;4.164;2023-02-28T07:11:25;11.05;;;5.88;;
76292;SDS011;67256;51.154;4.164;2023-02-28T07:13:52;14.50;;;6.50;;
76292;SDS011;67256;51.154;4.164;2023-02-28T07:16:19;13.57;;;6.85;;
76292;SDS011;67256;51.154;4.164;2023-02-28T07:18:45;12.50;;;7.05;;
76292;SDS011;67256;51.154;4.164;2023-02-28T07:21:11;12.77;;;6.95;;
76292;SDS011;67256;51.154;4.164;2023-02-28T07:23:37;10.55;;;5.95;;
76292;SDS011;67256;51.154;4.164;2023-02-28T07:26:03;10.52;;;5.32;;
76292;SDS011;67256;51.154;4.164;2023-02-28T07:28:30;9.30;;;6.25;;
76292;SDS011;67256;51.154;4.164;2023-02-28T07:30:56;8.95;;;5.50;;
76292;SDS011;67256;51.154;4.164;2023-02-28T07:33:21;13.13;;;5.38;;
76292;SDS011;67256;51.154;4.164;2023-02-28T07:35:48;12.77;;;5.68;;
76292;SDS011;67256;51.154;4.164;2023-02-28T07:38:14;12.50;;;5.55;;
76292;SDS011;67256;51.154;4.164;2023-02-28T07:40:40;10.10;;;5.38;;
76292;SDS011;67256;51.154;4.164;2023-02-28T07:43:06;12.55;;;5.78;;
76292;SDS011;67256;51.154;4.164;2023-02-28T07:45:32;9.75;;;5.82;;
76292;SDS011;67256;51.154;4.164;2023-02-28T07:47:59;8.52;;;5.35;;
76292;SDS011;67256;51.154;4.164;2023-02-28T07:50:25;14.77;;;5.78;;
76292;SDS011;67256;51.154;4.164;2023-02-28T07:52:54;14.77;;;6.05;;
76292;SDS011;67256;51.154;4.164;2023-02-28T07:55:20;9.80;;;5.65;;
76292;SDS011;67256;51.154;4.164;2023-02-28T07:57:46;12.15;;;5.38;;
76292;SDS011;67256;51.154;4.164;2023-02-28T08:00:11;12.68;;;5.75;;
76292;SDS011;67256;51.154;4.164;2023-02-28T08:02:38;16.98;;;8.55;;
76292;SDS011;67256;51.154;4.164;2023-02-28T08:05:05;12.60;;;5.95;;
76292;SDS011;67256;51.154;4.164;2023-02-28T08:07:31;12.70;;;6.60;;
76292;SDS011;67256;51.154;4.164;2023-02-28T08:09:58;7.88;;;5.13;;
76292;SDS011;67256;51.154;4.164;2023-02-28T08:12:24;11.52;;;5.80;;
76292;SDS011;67256;51.154;4.164;2023-02-28T08:14:49;11.57;;;5.60;;
76292;SDS011;67256;51.154;4.164;2023-02-28T08:17:15;12.48;;;5.82;;
76292;SDS011;67256;51.154;4.164;2023-02-28T08:19:41;15.80;;;5.35;;
76292;SDS011;67256;51.154;4.164;2023-02-28T08:22:07;12.88;;;6.07;;
76292;SDS011;67256;51.154;4.164;2023-02-28T08:24:33;14.30;;;5.03;;
76292;SDS011;67256;51.154;4.164;2023-02-28T08:26:59;11.27;;;5.20;;
76292;SDS011;67256;51.154;4.164;2023-02-28T08:29:24;6.57;;;5.07;;
76292;SDS011;67256;51.154;4.164;2023-02-28T08:31:50;10.10;;;5.22;;
76292;SDS011;67256;51.154;4.164;2023-02-28T08:34:16;7.80;;;4.63;;
76292;SDS011;67256;51.154;4.164;2023-02-28T08:36:42;10.90;;;4.93;;
76292;SDS011;67256;51.154;4.164;2023-02-28T08:39:10;5.15;;;3.50;;
76292;SDS011;67256;51.154;4.164;2023-02-28T08:41:36;7.25;;;4.25;;
76292;SDS011;67256;51.154;4.164;2023-02-28T08:44:02;7.15;;;3.58;;
76292;SDS011;67256;51.154;4.164;2023-02-28T08:46:28;6.55;;;4.10;;
76292;SDS011;67256;51.154;4.164;2023-02-28T08:48:55;6.93;;;3.45;;
76292;SDS011;67256;51.154;4.164;2023-02-28T08:51:25;11.80;;;4.18;;
76292;SDS011;67256;51.154;4.164;2023-02-28T08:53:55;7.70;;;4.10;;
76292;SDS011;67256;51.154;4.164;2023-02-28T08:56:22;6.45;;;3.38;;
76292;SDS011;67256;51.154;4.164;2023-02-28T08:58:49;7.63;;;3.53;;
76292;SDS011;67256;51.154;4.164;2023-02-28T09:03:42;6.97;;;3.33;;
76292;SDS011;67256;51.154;4.164;2023-02-28T09:06:08;5.32;;;3.22;;
76292;SDS011;67256;51.154;4.164;2023-02-28T09:08:36;4.97;;;2.15;;
76292;SDS011;67256;51.154;4.164;2023-02-28T09:11:02;3.63;;;2.30;;
76292;SDS011;67256;51.154;4.164;2023-02-28T09:13:28;5.03;;;2.65;;
76292;SDS011;67256;51.154;4.164;2023-02-28T09:15:59;5.28;;;2.85;;
76292;SDS011;67256;51.154;4.164;2023-02-28T09:18:26;3.90;;;2.53;;
76292;SDS011;67256;51.154;4.164;2023-02-28T09:20:52;6.13;;;2.08;;
76292;SDS011;67256;51.154;4.164;2023-02-28T09:23:19;2.75;;;1.83;;
76292;SDS011;67256;51.154;4.164;2023-02-28T09:25:46;4.07;;;1.95;;
76292;SDS011;67256;51.154;4.164;2023-02-28T09:28:13;3.53;;;1.65;;
76292;SDS011;67256;51.154;4.164;2023-02-28T09:30:41;4.03;;;2.25;;
76292;SDS011;67256;51.154;4.164;2023-02-28T09:33:08;4.43;;;1.73;;
76292;SDS011;67256;51.154;4.164;2023-02-28T09:35:34;3.78;;;1.85;;
76292;SDS011;67256;51.154;4.164;2023-02-28T09:38:02;5.82;;;1.60;;
76292;SDS011;67256;51.154;4.164;2023-02-28T09:40:28;3.05;;;1.58;;
76292;SDS011;67256;51.154;4.164;2023-02-28T09:42:54;4.18;;;1.50;;
76292;SDS011;67256;51.154;4.164;2023-02-28T09:45:28;5.95;;;1.88;;
76292;SDS011;67256;51.154;4.164;2023-02-28T09:48:01;4.40;;;1.90;;
76292;SDS011;67256;51.154;4.164;2023-02-28T09:50:37;2.95;;;1.88;;
76292;SDS011;67256;51.154;4.164;2023-02-28T09:53:28;5.65;;;2.47;;
76292;SDS011;67256;51.154;4.164;2023-02-28T09:56:01;3.47;;;2.00;;
76292;SDS011;67256;51.154;4.164;2023-02-28T10:01:44;4.65;;;2.20;;
76292;SDS011;67256;51.154;4.164;2023-02-28T10:04:40;7.13;;;2.10;;
76292;SDS011;67256;51.154;4.164;2023-02-28T10:09:49;8.23;;;2.40;;
76292;SDS011;67256;51.154;4.164;2023-02-28T10:12:19;4.47;;;1.80;;
76292;SDS011;67256;51.154;4.164;2023-02-28T10:14:46;3.97;;;2.20;;
76292;SDS011;67256;51.154;4.164;2023-02-28T10:17:17;4.60;;;1.85;;
76292;SDS011;67256;51.154;4.164;2023-02-28T10:19:52;5.65;;;2.40;;
76292;SDS011;67256;51.154;4.164;2023-02-28T10:22:32;4.55;;;2.30;;
76292;SDS011;67256;51.154;4.164;2023-02-28T10:25:05;3.63;;;2.45;;
76292;SDS011;67256;51.154;4.164;2023-02-28T10:27:45;5.82;;;2.47;;
76292;SDS011;67256;51.154;4.164;2023-02-28T10:30:11;4.35;;;2.47;;
76292;SDS011;67256;51.154;4.164;2023-02-28T10:32:43;4.57;;;2.45;;
76292;SDS011;67256;51.154;4.164;2023-02-28T10:35:27;5.78;;;2.63;;
76292;SDS011;67256;51.154;4.164;2023-02-28T10:37:57;2.78;;;1.70;;
76292;SDS011;67256;51.154;4.164;2023-02-28T10:40:27;2.55;;;1.80;;
76292;SDS011;67256;51.154;4.164;2023-02-28T10:45:32;4.68;;;1.90;;
76292;SDS011;67256;51.154;4.164;2023-02-28T10:48:03;3.60;;;1.77;;
76292;SDS011;67256;51.154;4.164;2023-02-28T10:50:42;2.80;;;1.70;;
76292;SDS011;67256;51.154;4.164;2023-02-28T10:55:58;3.80;;;1.60;;
76292;SDS011;67256;51.154;4.164;2023-02-28T11:01:21;5.10;;;1.70;;
76292;SDS011;67256;51.154;4.164;2023-02-28T11:03:48;6.05;;;1.63;;
76292;SDS011;67256;51.154;4.164;2023-02-28T11:08:54;5.43;;;1.65;;
76292;SDS011;67256;51.154;4.164;2023-02-28T11:11:22;3.92;;;1.83;;
76292;SDS011;67256;51.154;4.164;2023-02-28T11:13:55;2.88;;;1.58;;
76292;SDS011;67256;51.154;4.164;2023-02-28T11:16:31;3.63;;;1.88;;
76292;SDS011;67256;51.154;4.164;2023-02-28T11:19:02;2.95;;;1.40;;
76292;SDS011;67256;51.154;4.164;2023-02-28T11:21:40;2.63;;;1.52;;
76292;SDS011;67256;51.154;4.164;2023-02-28T11:29:56;2.67;;;1.20;;
76292;SDS011;67256;51.154;4.164;2023-02-28T11:32:26;4.90;;;1.70;;
76292;SDS011;67256;51.154;4.164;2023-02-28T11:37:39;3.92;;;1.65;;
76292;SDS011;67256;51.154;4.164;2023-02-28T11:40:12;2.67;;;1.88;;
76292;SDS011;67256;51.154;4.164;2023-02-28T11:50:47;2.95;;;1.67;;
76292;SDS011;67256;51.154;4.164;2023-02-28T11:59:19;2.55;;;1.60;;
76292;SDS011;67256;51.154;4.164;2023-02-28T12:01:43;3.15;;;1.80;;
76292;SDS011;67256;51.154;4.164;2023-02-28T12:15:28;2.47;;;1.42;;
76292;SDS011;67256;51.154;4.164;2023-02-28T12:28:54;2.75;;;1.33;;
76292;SDS011;67256;51.154;4.164;2023-02-28T12:31:28;2.97;;;1.50;;
76292;SDS011;67256;51.154;4.164;2023-02-28T12:34:00;4.05;;;1.63;;
76292;SDS011;67256;51.154;4.164;2023-02-28T12:36:39;5.28;;;1.50;;
76292;SDS011;67256;51.154;4.164;2023-02-28T12:41:41;3.38;;;1.95;;
76292;SDS011;67256;51.154;4.164;2023-02-28T12:47:15;2.20;;;1.55;;
76292;SDS011;67256;51.154;4.164;2023-02-28T12:52:51;2.63;;;1.50;;
76292;SDS011;67256;51.154;4.164;2023-02-28T12:55:41;2.47;;;1.35;;
76292;SDS011;67256;51.154;4.164;2023-02-28T12:59:02;4.35;;;2.03;;
76292;SDS011;67256;51.154;4.164;2023-02-28T13:09:31;4.25;;;1.50;;
76292;SDS011;67256;51.154;4.164;2023-02-28T13:11:57;3.60;;;1.85;;
76292;SDS011;67256;51.154;4.164;2023-02-28T13:19:40;3.30;;;2.05;;
76292;SDS011;67256;51.154;4.164;2023-02-28T13:24:53;3.50;;;2.17;;
76292;SDS011;67256;51.154;4.164;2023-02-28T13:27:22;3.05;;;1.73;;
76292;SDS011;67256;51.154;4.164;2023-02-28T13:29:56;3.00;;;2.05;;
76292;SDS011;67256;51.154;4.164;2023-02-28T13:39:55;5.75;;;2.40;;
76292;SDS011;67256;51.154;4.164;2023-02-28T14:07:00;6.22;;;2.15;;
76292;SDS011;67256;51.154;4.164;2023-02-28T14:09:40;6.93;;;2.13;;
76292;SDS011;67256;51.154;4.164;2023-02-28T14:12:51;2.72;;;2.10;;
76292;SDS011;67256;51.154;4.164;2023-02-28T14:18:19;3.67;;;2.00;;
76292;SDS011;67256;51.154;4.164;2023-02-28T14:34:52;7.88;;;2.80;;
76292;SDS011;67256;51.154;4.164;2023-02-28T14:37:28;4.25;;;2.40;;
76292;SDS011;67256;51.154;4.164;2023-02-28T14:39:57;4.03;;;2.63;;
76292;SDS011;67256;51.154;4.164;2023-02-28T14:42:29;3.67;;;2.28;;
76292;SDS011;67256;51.154;4.164;2023-02-28T14:44:58;4.80;;;2.80;;
76292;SDS011;67256;51.154;4.164;2023-02-28T14:47:27;4.53;;;2.72;;
76292;SDS011;67256;51.154;4.164;2023-02-28T14:49:56;3.60;;;2.63;;
76292;SDS011;67256;51.154;4.164;2023-02-28T14:52:24;3.75;;;2.30;;
76292;SDS011;67256;51.154;4.164;2023-02-28T14:55:05;4.88;;;2.25;;
76292;SDS011;67256;51.154;4.164;2023-02-28T14:57:41;6.20;;;2.60;;
76292;SDS011;67256;51.154;4.164;2023-02-28T15:00:18;5.50;;;3.05;;
76292;SDS011;67256;51.154;4.164;2023-02-28T15:02:54;4.82;;;2.42;;
76292;SDS011;67256;51.154;4.164;2023-02-28T15:05:23;7.18;;;2.47;;
76292;SDS011;67256;51.154;4.164;2023-02-28T15:08:14;4.70;;;2.55;;
76292;SDS011;67256;51.154;4.164;2023-02-28T15:10:40;3.83;;;2.20;;
76292;SDS011;67256;51.154;4.164;2023-02-28T15:15:54;9.05;;;4.35;;
76292;SDS011;67256;51.154;4.164;2023-02-28T15:20:59;4.07;;;2.78;;
76292;SDS011;67256;51.154;4.164;2023-02-28T15:23:30;4.43;;;2.80;;
76292;SDS011;67256;51.154;4.164;2023-02-28T15:25:56;4.03;;;2.50;;
76292;SDS011;67256;51.154;4.164;2023-02-28T15:28:23;5.22;;;2.97;;
76292;SDS011;67256;51.154;4.164;2023-02-28T15:30:55;5.78;;;3.38;;
76292;SDS011;67256;51.154;4.164;2023-02-28T15:33:27;4.93;;;3.17;;
76292;SDS011;67256;51.154;4.164;2023-02-28T15:38:35;3.58;;;2.50;;
76292;SDS011;67256;51.154;4.164;2023-02-28T15:41:01;3.85;;;2.72;;
76292;SDS011;67256;51.154;4.164;2023-02-28T15:43:34;3.97;;;2.63;;
76292;SDS011;67256;51.154;4.164;2023-02-28T15:46:02;4.40;;;2.90;;
76292;SDS011;67256;51.154;4.164;2023-02-28T15:48:54;4.60;;;2.40;;
76292;SDS011;67256;51.154;4.164;2023-02-28T15:51:32;3.92;;;2.78;;
76292;SDS011;67256;51.154;4.164;2023-02-28T15:56:33;5.47;;;2.88;;
76292;SDS011;67256;51.154;4.164;2023-02-28T15:59:06;6.22;;;2.80;;
76292;SDS011;67256;51.154;4.164;2023-02-28T16:01:38;5.95;;;3.22;;
76292;SDS011;67256;51.154;4.164;2023-02-28T16:04:05;6.80;;;3.72;;
76292;SDS011;67256;51.154;4.164;2023-02-28T16:06:39;4.32;;;3.15;;
76292;SDS011;67256;51.154;4.164;2023-02-28T16:09:08;4.70;;;2.85;;
76292;SDS011;67256;51.154;4.164;2023-02-28T16:11:39;5.50;;;3.35;;
76292;SDS011;67256;51.154;4.164;2023-02-28T16:14:18;8.63;;;3.13;;
76292;SDS011;67256;51.154;4.164;2023-02-28T16:16:49;5.03;;;2.88;;
76292;SDS011;67256;51.154;4.164;2023-02-28T16:19:17;3.80;;;2.50;;
76292;SDS011;67256;51.154;4.164;2023-02-28T16:21:43;4.20;;;2.65;;
76292;SDS011;67256;51.154;4.164;2023-02-28T16:24:10;6.22;;;2.70;;
76292;SDS011;67256;51.154;4.164;2023-02-28T16:26:36;6.88;;;2.85;;
76292;SDS011;67256;51.154;4.164;2023-02-28T16:29:04;8.75;;;3.10;;
76292;SDS011;67256;51.154;4.164;2023-02-28T16:31:32;5.90;;;3.13;;
76292;SDS011;67256;51.154;4.164;2023-02-28T16:34:02;4.40;;;3.00;;
76292;SDS011;67256;51.154;4.164;2023-02-28T16:36:29;4.65;;;2.50;;
76292;SDS011;67256;51.154;4.164;2023-02-28T16:38:55;5.22;;;2.80;;
76292;SDS011;67256;51.154;4.164;2023-02-28T16:41:21;8.93;;;3.60;;
76292;SDS011;67256;51.154;4.164;2023-02-28T16:43:53;7.47;;;3.33;;
76292;SDS011;67256;51.154;4.164;2023-02-28T16:46:26;4.68;;;2.78;;
76292;SDS011;67256;51.154;4.164;2023-02-28T16:48:56;9.35;;;2.90;;
76292;SDS011;67256;51.154;4.164;2023-02-28T16:51:21;6.07;;;3.40;;
76292;SDS011;67256;51.154;4.164;2023-02-28T16:53:47;5.78;;;4.22;;
76292;SDS011;67256;51.154;4.164;2023-02-28T16:56:23;8.75;;;3.95;;
76292;SDS011;67256;51.154;4.164;2023-02-28T16:58:50;4.82;;;2.85;;
76292;SDS011;67256;51.154;4.164;2023-02-28T17:01:17;4.75;;;2.92;;
76292;SDS011;67256;51.154;4.164;2023-02-28T17:03:46;8.18;;;3.60;;
76292;SDS011;67256;51.154;4.164;2023-02-28T17:06:19;7.38;;;3.63;;
76292;SDS011;67256;51.154;4.164;2023-02-28T17:08:51;8.32;;;4.20;;
76292;SDS011;67256;51.154;4.164;2023-02-28T17:11:18;7.28;;;4.75;;
76292;SDS011;67256;51.154;4.164;2023-02-28T17:13:44;5.72;;;3.80;;
76292;SDS011;67256;51.154;4.164;2023-02-28T17:18:49;7.13;;;4.10;;
76292;SDS011;67256;51.154;4.164;2023-02-28T17:21:16;6.00;;;3.83;;
76292;SDS011;67256;51.154;4.164;2023-02-28T17:23:42;5.55;;;3.80;;
76292;SDS011;67256;51.154;4.164;2023-02-28T17:26:12;5.57;;;4.13;;
76292;SDS011;67256;51.154;4.164;2023-02-28T17:28:39;5.38;;;3.85;;
76292;SDS011;67256;51.154;4.164;2023-02-28T17:31:05;7.50;;;3.80;;
76292;SDS011;67256;51.154;4.164;2023-02-28T17:33:30;7.63;;;3.60;;
76292;SDS011;67256;51.154;4.164;2023-02-28T17:35:56;5.53;;;3.25;;
76292;SDS011;67256;51.154;4.164;2023-02-28T17:38:22;6.22;;;3.50;;
76292;SDS011;67256;51.154;4.164;2023-02-28T17:40:48;7.97;;;4.35;;
76292;SDS011;67256;51.154;4.164;2023-02-28T17:43:14;7.50;;;4.95;;
76292;SDS011;67256;51.154;4.164;2023-02-28T17:45:40;9.10;;;4.75;;
76292;SDS011;67256;51.154;4.164;2023-02-28T17:48:06;5.28;;;3.88;;
76292;SDS011;67256;51.154;4.164;2023-02-28T17:50:34;8.30;;;3.55;;
76292;SDS011;67256;51.154;4.164;2023-02-28T17:53:00;7.40;;;3.45;;
76292;SDS011;67256;51.154;4.164;2023-02-28T17:55:26;5.50;;;3.65;;
76292;SDS011;67256;51.154;4.164;2023-02-28T17:57:52;6.55;;;4.30;;